createdAt,value
2022-10-07T04:31:05.860Z,8.86
2022-10-07T04:32:05.757Z,8.74
2022-10-07T04:33:05.751Z,8.65
2022-10-07T04:34:05.725Z,8.66
2022-10-07T04:35:05.730Z,8.70
2022-10-07T04:36:05.701Z,8.55
2022-10-07T04:37:05.709Z,8.62
2022-10-07T04:38:05.686Z,8.63
2022-10-07T04:39:05.668Z,8.65
2022-10-07T04:40:05.654Z,8.58
2022-10-07T04:41:05.642Z,8.62
2022-10-07T04:42:05.654Z,8.56
2022-10-07T04:43:05.645Z,8.61
2022-10-07T04:44:05.614Z,8.65
2022-10-07T04:45:05.603Z,8.62
2022-10-07T04:46:05.612Z,8.61
2022-10-07T04:47:05.685Z,8.58
2022-10-07T04:48:05.571Z,8.61
2022-10-07T04:49:05.569Z,8.58
2022-10-07T04:50:05.571Z,8.53
2022-10-07T04:51:05.564Z,8.59
2022-10-07T04:52:05.526Z,8.59
2022-10-07T04:53:05.519Z,8.62
2022-10-07T04:54:05.506Z,8.62
2022-10-07T04:55:05.502Z,8.62
2022-10-07T04:56:05.502Z,8.58
2022-10-07T04:57:05.471Z,8.58
2022-10-07T04:58:05.461Z,8.58
2022-10-07T04:59:05.475Z,8.68
2022-10-07T05:00:05.439Z,8.63
2022-10-07T05:01:05.483Z,8.65
2022-10-07T05:02:05.503Z,8.63
2022-10-07T05:03:05.428Z,8.66
2022-10-07T05:04:05.395Z,8.55
2022-10-07T05:05:05.387Z,8.66
2022-10-07T05:06:06.141Z,8.53
2022-10-07T05:07:05.365Z,8.58
2022-10-07T05:08:05.376Z,8.61
2022-10-07T05:09:05.345Z,8.56
2022-10-07T05:10:05.332Z,8.65
2022-10-07T05:11:05.319Z,8.52
2022-10-07T05:12:05.335Z,8.50
2022-10-07T05:13:05.296Z,8.55
2022-10-07T05:14:05.315Z,8.45
2022-10-07T05:15:05.282Z,8.45
2022-10-07T05:16:05.323Z,8.47
2022-10-07T05:17:05.297Z,8.48
2022-10-07T05:18:05.254Z,8.52
2022-10-07T05:19:05.251Z,8.41
2022-10-07T05:20:05.223Z,8.37
2022-10-07T05:21:05.212Z,8.43
2022-10-07T05:22:05.219Z,8.45
2022-10-07T05:23:05.190Z,8.45
2022-10-07T05:24:05.200Z,8.41
2022-10-07T05:25:05.168Z,8.44
2022-10-07T05:26:05.174Z,8.38
2022-10-07T05:27:05.143Z,8.45
2022-10-07T05:28:05.211Z,8.40
2022-10-07T05:29:05.135Z,8.43
2022-10-07T05:30:05.121Z,8.41
2022-10-07T05:31:05.227Z,8.47
2022-10-07T05:32:05.460Z,8.47
2022-10-07T05:33:05.080Z,8.44
2022-10-07T05:34:05.093Z,8.45
2022-10-07T05:35:05.075Z,8.41
2022-10-07T05:36:05.062Z,8.47
2022-10-07T05:37:05.051Z,8.43
2022-10-07T05:38:05.025Z,8.40
2022-10-07T05:39:05.034Z,8.44
2022-10-07T05:40:05.008Z,8.34
2022-10-07T05:41:04.992Z,8.41
2022-10-07T05:42:05.012Z,8.44
2022-10-07T05:43:04.973Z,8.50
2022-10-07T05:44:04.979Z,8.43
2022-10-07T05:45:04.956Z,8.36
2022-10-07T05:46:05.040Z,8.40
2022-10-07T05:47:04.949Z,8.41
2022-10-07T05:48:04.927Z,8.26
2022-10-07T05:49:04.905Z,8.25
2022-10-07T05:50:04.917Z,8.28
2022-10-07T05:51:04.898Z,8.28
2022-10-07T05:52:04.873Z,8.26
2022-10-07T05:53:04.863Z,8.18
2022-10-07T05:54:04.863Z,8.29
2022-10-07T05:55:04.869Z,8.29
2022-10-07T05:56:04.828Z,8.29
2022-10-07T05:57:04.818Z,8.26
2022-10-07T05:58:04.808Z,8.29
2022-10-07T05:59:04.800Z,8.19
2022-10-07T06:00:04.795Z,8.29
2022-10-07T06:01:07.726Z,8.29
2022-10-07T06:02:05.877Z,8.23
2022-10-07T06:03:04.979Z,8.29
2022-10-07T06:04:04.776Z,8.19
2022-10-07T06:05:04.737Z,8.23
2022-10-07T06:06:04.727Z,8.25
2022-10-07T06:07:04.791Z,8.18
2022-10-07T06:08:04.699Z,8.18
2022-10-07T06:09:04.693Z,8.11
2022-10-07T06:10:04.677Z,8.16
2022-10-07T06:11:04.667Z,8.11
2022-10-07T06:12:04.679Z,8.08
2022-10-07T06:13:04.657Z,8.12
2022-10-07T06:14:04.632Z,8.04
2022-10-07T06:15:04.651Z,8.01
2022-10-07T06:16:04.609Z,8.04
2022-10-07T06:17:04.738Z,8.19
2022-10-07T06:18:04.599Z,8.26
2022-10-07T06:19:04.606Z,8.30
2022-10-07T06:20:04.635Z,8.45
2022-10-07T06:21:04.589Z,8.43
2022-10-07T06:22:04.545Z,8.52
2022-10-07T06:23:04.556Z,8.52
2022-10-07T06:24:04.541Z,8.59
2022-10-07T06:25:04.514Z,8.55
2022-10-07T06:26:04.503Z,8.65
2022-10-07T06:27:04.522Z,8.71
2022-10-07T06:28:04.536Z,8.63
2022-10-07T06:29:04.469Z,8.80
2022-10-07T06:30:04.465Z,8.70
2022-10-07T06:31:04.490Z,8.86
2022-10-07T06:32:04.448Z,8.79
2022-10-07T06:33:04.446Z,8.86
2022-10-07T06:34:04.417Z,8.87
2022-10-07T06:35:04.401Z,8.83
2022-10-07T06:36:04.736Z,8.91
2022-10-07T06:37:04.407Z,8.83
2022-10-07T06:38:04.392Z,8.77
2022-10-07T06:39:04.389Z,8.84
2022-10-07T06:40:04.347Z,8.86
2022-10-07T06:41:04.354Z,8.79
2022-10-07T06:42:04.327Z,8.80
2022-10-07T06:43:04.333Z,8.80
2022-10-07T06:44:04.304Z,8.86
2022-10-07T06:45:04.297Z,8.84
2022-10-07T06:46:04.463Z,8.92
2022-10-07T06:47:07.868Z,8.94
2022-10-07T06:48:05.282Z,8.95
2022-10-07T06:49:04.250Z,9.01
2022-10-07T06:50:04.238Z,9.08
2022-10-07T06:51:04.231Z,9.10
2022-10-07T06:52:04.237Z,9.24
2022-10-07T06:53:04.237Z,9.33
2022-10-07T06:54:04.230Z,9.39
2022-10-07T06:55:04.204Z,9.39
2022-10-07T06:56:04.173Z,9.53
2022-10-07T06:57:20.416Z,9.65
2022-10-07T06:58:10.559Z,9.66
2022-10-07T06:59:05.192Z,9.75
2022-10-07T07:00:04.130Z,9.76
2022-10-07T07:01:04.153Z,9.79
2022-10-07T07:02:04.141Z,10.04
2022-10-07T07:03:04.097Z,10.08
2022-10-07T07:04:04.091Z,10.17
2022-10-07T07:05:04.106Z,10.26
2022-10-07T07:06:04.069Z,10.47
2022-10-07T07:07:04.052Z,10.53
2022-10-07T07:08:04.042Z,10.59
2022-10-07T07:09:04.033Z,10.61
2022-10-07T07:10:04.021Z,10.67
2022-10-07T07:11:04.080Z,10.81
2022-10-07T07:12:04.005Z,10.89
2022-10-07T07:13:03.999Z,11.02
2022-10-07T07:14:03.976Z,11.04
2022-10-07T07:15:03.963Z,11.11
2022-10-07T07:16:03.957Z,11.14
2022-10-07T07:17:04.085Z,11.11
2022-10-07T07:18:03.957Z,11.27
2022-10-07T07:19:03.922Z,11.29
2022-10-07T07:20:03.912Z,11.37
2022-10-07T07:21:03.900Z,11.40
2022-10-07T07:22:03.889Z,11.27
2022-10-07T07:23:03.911Z,11.19
2022-10-07T07:24:03.907Z,11.36
2022-10-07T07:25:03.864Z,11.37
2022-10-07T07:26:03.843Z,11.40
2022-10-07T07:27:03.892Z,11.44
2022-10-07T07:28:03.906Z,11.52
2022-10-07T07:29:03.853Z,11.49
2022-10-07T07:30:03.808Z,11.65
2022-10-07T07:31:03.863Z,11.73
2022-10-07T07:32:03.778Z,11.78
2022-10-07T07:33:03.768Z,11.69
2022-10-07T07:34:03.752Z,11.70
2022-10-07T07:35:03.816Z,11.40
2022-10-07T07:36:03.752Z,11.49
2022-10-07T07:37:03.740Z,11.52
2022-10-07T07:38:03.712Z,11.61
2022-10-07T07:39:03.705Z,11.62
2022-10-07T07:40:03.693Z,11.54
2022-10-07T07:41:03.709Z,11.67
2022-10-07T07:42:03.670Z,11.75
2022-10-07T07:43:03.691Z,11.67
2022-10-07T07:44:03.649Z,11.80
2022-10-07T07:45:03.647Z,12.01
2022-10-07T07:46:03.672Z,12.13
2022-10-07T07:47:03.619Z,12.14
2022-10-07T07:48:03.649Z,12.14
2022-10-07T07:49:03.603Z,11.99
2022-10-07T07:50:04.344Z,11.99
2022-10-07T07:51:03.571Z,12.10
2022-10-07T07:52:03.584Z,12.21
2022-10-07T07:53:03.559Z,12.39
2022-10-07T07:54:03.538Z,12.47
2022-10-07T07:55:03.522Z,12.62
2022-10-07T07:56:03.527Z,12.74
2022-10-07T07:57:03.528Z,12.82
2022-10-07T07:58:03.493Z,12.96
2022-10-07T07:59:03.523Z,12.93
2022-10-07T08:00:03.473Z,12.96
2022-10-07T08:01:03.586Z,12.90
2022-10-07T08:02:03.479Z,12.95
2022-10-07T08:03:03.444Z,12.96
2022-10-07T08:04:03.427Z,12.83
2022-10-07T08:05:03.458Z,12.83
2022-10-07T08:06:03.407Z,12.90
2022-10-07T08:07:03.396Z,13.04
2022-10-07T08:08:03.391Z,13.22
2022-10-07T08:09:03.373Z,13.25
2022-10-07T08:10:03.395Z,13.36
2022-10-07T08:11:03.374Z,13.48
2022-10-07T08:12:03.341Z,13.33
2022-10-07T08:13:03.358Z,13.17
2022-10-07T08:14:03.315Z,13.20
2022-10-07T08:15:03.331Z,13.19
2022-10-07T08:16:03.415Z,13.15
2022-10-07T08:17:03.287Z,13.10
2022-10-07T08:18:03.301Z,13.36
2022-10-07T08:19:03.263Z,13.39
2022-10-07T08:20:03.269Z,13.46
2022-10-07T08:21:03.265Z,13.39
2022-10-07T08:22:03.237Z,13.39
2022-10-07T08:23:03.216Z,13.46
2022-10-07T08:24:03.212Z,13.63
2022-10-07T08:25:03.218Z,13.75
2022-10-07T08:26:03.180Z,13.82
2022-10-07T08:27:03.192Z,13.52
2022-10-07T08:28:03.201Z,13.69
2022-10-07T08:29:03.148Z,13.82
2022-10-07T08:30:03.169Z,13.84
2022-10-07T08:31:03.224Z,13.91
2022-10-07T08:32:03.136Z,14.10
2022-10-07T08:33:03.108Z,14.12
2022-10-07T08:34:03.109Z,14.24
2022-10-07T08:35:03.083Z,14.06
2022-10-07T08:36:03.070Z,14.18
2022-10-07T08:37:03.087Z,14.22
2022-10-07T08:38:03.049Z,14.29
2022-10-07T08:39:03.035Z,14.42
2022-10-07T08:40:03.031Z,14.12
2022-10-07T08:41:03.016Z,14.07
2022-10-07T08:42:03.029Z,14.02
2022-10-07T08:43:03.005Z,14.06
2022-10-07T08:44:06.237Z,14.24
2022-10-07T08:45:02.977Z,14.33
2022-10-07T08:46:03.011Z,14.40
2022-10-07T08:47:03.006Z,14.58
2022-10-07T08:48:02.937Z,14.88
2022-10-07T08:49:02.927Z,15.01
2022-10-07T08:50:02.945Z,15.28
2022-10-07T08:51:02.923Z,15.28
2022-10-07T08:52:02.925Z,15.50
2022-10-07T08:53:02.885Z,15.75
2022-10-07T08:54:02.870Z,15.96
2022-10-07T08:55:02.886Z,15.80
2022-10-07T08:56:02.861Z,15.84
2022-10-07T08:57:02.844Z,15.84
2022-10-07T08:58:02.857Z,15.93
2022-10-07T08:59:02.819Z,15.68
2022-10-07T09:00:02.814Z,15.54
2022-10-07T09:01:02.895Z,15.64
2022-10-07T09:02:02.783Z,15.57
2022-10-07T09:03:02.815Z,15.82
2022-10-07T09:04:02.791Z,15.78
2022-10-07T09:05:02.775Z,15.84
2022-10-07T09:06:02.746Z,15.97
2022-10-07T09:07:02.736Z,15.90
2022-10-07T09:08:02.717Z,16.05
2022-10-07T09:09:02.709Z,16.09
2022-10-07T09:10:02.743Z,16.08
2022-10-07T09:11:07.227Z,16.14
2022-10-07T09:12:03.675Z,16.27
2022-10-07T09:13:02.664Z,16.41
2022-10-07T09:14:02.680Z,16.34
2022-10-07T09:15:02.649Z,16.07
2022-10-07T09:16:02.692Z,16.15
2022-10-07T09:17:02.636Z,16.01
2022-10-07T09:18:02.618Z,16.07
2022-10-07T09:19:02.671Z,16.15
2022-10-07T09:20:02.590Z,16.30
2022-10-07T09:21:02.602Z,16.46
2022-10-07T09:22:02.612Z,16.61
2022-10-07T09:23:02.557Z,16.81
2022-10-07T09:24:02.551Z,16.79
2022-10-07T09:25:03.159Z,16.83
2022-10-07T09:26:02.539Z,16.88
2022-10-07T09:27:02.539Z,16.82
2022-10-07T09:28:02.553Z,16.81
2022-10-07T09:29:02.494Z,16.66
2022-10-07T09:30:02.482Z,16.73
2022-10-07T09:31:02.591Z,16.67
2022-10-07T09:32:02.464Z,16.75
2022-10-07T09:33:02.446Z,16.81
2022-10-07T09:34:02.459Z,16.86
2022-10-07T09:35:02.440Z,16.88
2022-10-07T09:36:02.408Z,16.96
2022-10-07T09:37:02.401Z,16.94
2022-10-07T09:38:02.413Z,17.04
2022-10-07T09:39:02.398Z,16.83
2022-10-07T09:40:02.393Z,16.63
2022-10-07T09:41:02.358Z,16.58
2022-10-07T09:42:02.347Z,16.46
2022-10-07T09:43:02.344Z,16.52
2022-10-07T09:44:02.340Z,16.63
2022-10-07T09:45:02.346Z,16.71
2022-10-07T09:46:02.360Z,16.53
2022-10-07T09:47:02.293Z,16.63
2022-10-07T09:48:02.301Z,16.63
2022-10-07T09:49:02.268Z,16.75
2022-10-07T09:50:02.278Z,16.93
2022-10-07T09:51:02.264Z,17.15
2022-10-07T09:52:02.250Z,17.11
2022-10-07T09:53:02.279Z,17.36
2022-10-07T09:54:02.214Z,17.33
2022-10-07T09:55:02.227Z,17.44
2022-10-07T09:56:02.189Z,17.46
2022-10-07T09:57:02.198Z,17.56
2022-10-07T09:58:02.177Z,17.62
2022-10-07T09:59:02.177Z,17.74
2022-10-07T10:00:02.151Z,18.02
2022-10-07T10:01:02.166Z,18.02
2022-10-07T10:02:02.211Z,17.97
2022-10-07T10:03:05.203Z,17.97
2022-10-07T10:04:02.107Z,17.99
2022-10-07T10:05:02.109Z,17.82
2022-10-07T10:06:02.093Z,17.92
2022-10-07T10:07:02.104Z,17.86
2022-10-07T10:08:02.086Z,17.90
2022-10-07T10:09:02.052Z,17.95
2022-10-07T10:10:02.051Z,18.08
2022-10-07T10:11:02.045Z,18.26
2022-10-07T10:12:02.052Z,18.07
2022-10-07T10:13:02.045Z,18.14
2022-10-07T10:14:02.002Z,18.15
2022-10-07T10:15:01.984Z,18.21
2022-10-07T10:16:02.094Z,17.97
2022-10-07T10:17:01.974Z,17.92
2022-10-07T10:18:01.974Z,17.90
2022-10-07T10:19:01.942Z,17.97
2022-10-07T10:20:01.933Z,18.14
2022-10-07T10:21:01.917Z,18.26
2022-10-07T10:22:01.933Z,18.39
2022-10-07T10:23:01.918Z,18.25
2022-10-07T10:24:01.891Z,18.00
2022-10-07T10:25:01.878Z,18.11
2022-10-07T10:26:01.864Z,18.29
2022-10-07T10:27:01.878Z,18.41
2022-10-07T10:28:01.876Z,18.58
2022-10-07T10:29:01.860Z,18.37
2022-10-07T10:30:01.879Z,18.45
2022-10-07T10:31:01.829Z,18.33
2022-10-07T10:32:01.803Z,18.21
2022-10-07T10:33:01.806Z,18.10
2022-10-07T10:34:01.802Z,18.10
2022-10-07T10:35:01.785Z,18.15
2022-10-07T10:36:01.765Z,18.12
2022-10-07T10:37:01.742Z,18.30
2022-10-07T10:38:01.733Z,18.48
2022-10-07T10:39:01.737Z,18.66
2022-10-07T10:40:01.737Z,18.67
2022-10-07T10:41:01.740Z,18.82
2022-10-07T10:42:01.693Z,18.92
2022-10-07T10:43:01.688Z,18.99
2022-10-07T10:44:01.669Z,19.07
2022-10-07T10:45:01.681Z,18.99
2022-10-07T10:46:01.647Z,19.08
2022-10-07T10:47:01.746Z,19.23
2022-10-07T10:48:01.626Z,19.16
2022-10-07T10:49:01.683Z,19.16
2022-10-07T10:50:01.604Z,19.19
2022-10-07T10:51:01.591Z,19.07
2022-10-07T10:52:01.607Z,19.00
2022-10-07T10:53:01.596Z,19.14
2022-10-07T10:54:01.561Z,19.10
2022-10-07T10:55:01.576Z,19.22
2022-10-07T10:56:01.546Z,19.21
2022-10-07T10:57:01.528Z,18.88
2022-10-07T10:58:01.565Z,18.69
2022-10-07T10:59:01.504Z,18.85
2022-10-07T11:00:01.532Z,18.84
2022-10-07T11:01:01.514Z,19.02
2022-10-07T11:02:01.607Z,19.11
2022-10-07T11:03:01.504Z,19.13
2022-10-07T11:04:01.458Z,19.36
2022-10-07T11:05:01.446Z,19.39
2022-10-07T11:06:01.475Z,19.40
2022-10-07T11:07:01.435Z,19.14
2022-10-07T11:08:02.003Z,19.25
2022-10-07T11:09:01.391Z,19.28
2022-10-07T11:10:02.062Z,19.31
2022-10-07T11:11:01.393Z,19.44
2022-10-07T11:12:01.710Z,19.59
2022-10-07T11:13:01.355Z,19.63
2022-10-07T11:14:01.338Z,19.41
2022-10-07T11:15:02.248Z,19.51
2022-10-07T11:16:01.442Z,19.47
2022-10-07T11:17:01.330Z,19.54
2022-10-07T11:18:01.311Z,19.44
2022-10-07T11:19:01.291Z,19.41
2022-10-07T11:20:01.276Z,19.36
2022-10-07T11:21:01.283Z,19.39
2022-10-07T11:22:01.252Z,19.39
2022-10-07T11:23:01.241Z,19.44
2022-10-07T11:24:01.258Z,19.51
2022-10-07T11:25:01.245Z,19.65
2022-10-07T11:26:01.267Z,19.77
2022-10-07T11:27:01.218Z,19.73
2022-10-07T11:28:01.262Z,19.80
2022-10-07T11:29:01.171Z,19.59
2022-10-07T11:30:01.217Z,19.36
2022-10-07T11:31:01.236Z,19.41
2022-10-07T11:32:01.161Z,19.40
2022-10-07T11:33:01.132Z,19.51
2022-10-07T11:34:01.122Z,19.66
2022-10-07T11:35:01.105Z,19.62
2022-10-07T11:36:01.108Z,19.71
2022-10-07T11:37:01.124Z,19.71
2022-10-07T11:38:01.080Z,19.69
2022-10-07T11:39:01.058Z,19.81
2022-10-07T11:40:01.053Z,19.66
2022-10-07T11:41:01.036Z,19.66
2022-10-07T11:42:01.030Z,19.44
2022-10-07T11:43:01.091Z,19.43
2022-10-07T11:44:01.007Z,19.51
2022-10-07T11:45:00.999Z,19.58
2022-10-07T11:46:00.984Z,19.47
2022-10-07T11:47:01.032Z,19.46
2022-10-07T11:48:00.986Z,19.46
2022-10-07T11:49:00.961Z,19.58
2022-10-07T11:50:00.940Z,19.44
2022-10-07T11:51:00.927Z,19.43
2022-10-07T11:52:00.915Z,19.44
2022-10-07T11:53:00.928Z,19.41
2022-10-07T11:54:00.922Z,19.37
2022-10-07T11:55:00.890Z,19.41
2022-10-07T11:56:00.903Z,19.44
2022-10-07T11:57:00.866Z,19.44
2022-10-07T11:58:00.868Z,19.28
2022-10-07T11:59:00.886Z,19.36
2022-10-07T12:00:00.849Z,19.32
2022-10-07T12:01:00.825Z,19.33
2022-10-07T12:02:00.863Z,19.41
2022-10-07T12:03:00.888Z,19.25
2022-10-07T12:04:02.282Z,19.41
2022-10-07T12:05:00.775Z,19.48
2022-10-07T12:06:00.779Z,19.51
2022-10-07T12:07:00.771Z,19.51
2022-10-07T12:08:00.740Z,19.50
2022-10-07T12:09:00.736Z,19.44
2022-10-07T12:10:00.721Z,19.56
2022-10-07T12:11:02.410Z,19.39
2022-10-07T12:12:00.706Z,19.48
2022-10-07T12:13:00.702Z,19.58
2022-10-07T12:14:00.672Z,19.65
2022-10-07T12:15:00.713Z,19.66
2022-10-07T12:16:00.697Z,19.62
2022-10-07T12:17:00.642Z,19.74
2022-10-07T12:18:00.667Z,19.68
2022-10-07T12:19:00.616Z,19.69
2022-10-07T12:20:00.603Z,19.66
2022-10-07T12:21:00.594Z,19.68
2022-10-07T12:22:00.603Z,19.77
2022-10-07T12:23:00.568Z,19.80
2022-10-07T12:24:00.568Z,19.80
2022-10-07T12:25:00.558Z,19.68
2022-10-07T12:26:00.559Z,19.77
2022-10-07T12:27:00.525Z,19.69
2022-10-07T12:28:01.329Z,19.78
2022-10-07T12:29:00.524Z,19.71
2022-10-07T12:30:00.492Z,19.69
2022-10-07T12:31:00.540Z,19.74
2022-10-07T12:32:00.512Z,19.63
2022-10-07T12:33:00.480Z,19.56
2022-10-07T12:34:00.451Z,19.46
2022-10-07T12:35:00.438Z,19.58
2022-10-07T12:36:00.445Z,19.51
2022-10-07T12:37:00.422Z,19.59
2022-10-07T12:38:00.406Z,19.54
2022-10-07T12:39:00.422Z,19.56
2022-10-07T12:40:00.385Z,19.44
2022-10-07T12:41:00.374Z,19.41
2022-10-07T12:42:00.362Z,19.40
2022-10-07T12:43:00.369Z,19.29
2022-10-07T12:44:00.361Z,19.11
2022-10-07T12:45:00.336Z,19.19
2022-10-07T12:46:00.378Z,19.29
2022-10-07T12:47:00.402Z,19.22
2022-10-07T12:48:00.298Z,19.13
2022-10-07T12:49:00.305Z,19.10
2022-10-07T12:50:00.300Z,19.07
2022-10-07T12:51:00.272Z,19.04
2022-10-07T12:52:00.276Z,19.08
2022-10-07T12:53:00.237Z,18.85
2022-10-07T12:54:00.230Z,18.99
2022-10-07T12:55:00.256Z,18.91
2022-10-07T12:56:00.210Z,18.90
2022-10-07T12:57:00.224Z,18.92
2022-10-07T12:58:00.193Z,18.90
2022-10-07T12:59:00.182Z,18.90
2022-10-07T13:00:00.179Z,18.84
2022-10-07T13:01:00.281Z,18.95
2022-10-07T13:02:00.370Z,18.98
2022-10-07T13:03:00.155Z,18.91
2022-10-07T13:04:00.123Z,18.85
2022-10-07T13:05:00.114Z,18.85
2022-10-07T13:06:00.134Z,18.82
2022-10-07T13:07:00.107Z,18.87
2022-10-07T13:08:00.085Z,18.95
2022-10-07T13:09:00.062Z,18.81
2022-10-07T13:10:00.060Z,18.70
2022-10-07T13:11:00.099Z,18.65
2022-10-07T13:12:00.030Z,18.69
2022-10-07T13:13:00.033Z,18.57
2022-10-07T13:14:00.032Z,18.54
2022-10-07T13:15:00.004Z,18.47
2022-10-07T13:16:00.063Z,18.55
2022-10-07T13:16:59.983Z,18.52
2022-10-07T13:17:59.975Z,18.47
2022-10-07T13:19:00.025Z,18.57
2022-10-07T13:19:59.948Z,18.57
2022-10-07T13:20:59.935Z,18.54
2022-10-07T13:21:59.924Z,18.42
2022-10-07T13:22:59.914Z,18.45
2022-10-07T13:23:59.902Z,18.52
2022-10-07T13:24:59.939Z,18.52
2022-10-07T13:25:59.887Z,18.54
2022-10-07T13:26:59.879Z,18.60
2022-10-07T13:27:59.904Z,18.48
2022-10-07T13:28:59.847Z,18.41
2022-10-07T13:29:59.843Z,18.42
2022-10-07T13:30:59.854Z,18.33
2022-10-07T13:31:59.899Z,18.45
2022-10-07T13:32:59.802Z,18.39
2022-10-07T13:33:59.808Z,18.54
2022-10-07T13:34:59.844Z,18.48
2022-10-07T13:35:59.768Z,18.52
2022-10-07T13:36:59.778Z,18.50
2022-10-07T13:37:59.748Z,18.60
2022-10-07T13:38:59.739Z,18.65
2022-10-07T13:39:59.816Z,18.66
2022-10-07T13:40:59.745Z,18.62
2022-10-07T13:41:59.710Z,18.57
2022-10-07T13:42:59.727Z,18.51
2022-10-07T13:43:59.685Z,18.47
2022-10-07T13:44:59.674Z,18.52
2022-10-07T13:45:59.746Z,18.45
2022-10-07T13:46:59.676Z,18.41
2022-10-07T13:47:59.638Z,18.41
2022-10-07T13:48:59.671Z,18.51
2022-10-07T13:49:59.713Z,18.45
2022-10-07T13:50:59.711Z,18.50
2022-10-07T13:51:59.617Z,18.50
2022-10-07T13:52:59.590Z,18.55
2022-10-07T13:53:59.589Z,18.44
2022-10-07T13:54:59.582Z,18.48
2022-10-07T13:55:59.572Z,18.52
2022-10-07T13:56:59.547Z,18.45
2022-10-07T13:57:59.546Z,18.42
2022-10-07T13:58:59.523Z,18.42
2022-10-07T13:59:59.533Z,18.33
2022-10-07T14:00:59.559Z,18.36
2022-10-07T14:01:59.590Z,18.30
2022-10-07T14:02:59.583Z,18.33
2022-10-07T14:03:59.462Z,18.36
2022-10-07T14:04:59.453Z,18.26
2022-10-07T14:05:59.442Z,18.25
2022-10-07T14:06:59.471Z,18.25
2022-10-07T14:07:59.422Z,18.18
2022-10-07T14:08:59.415Z,18.15
2022-10-07T14:09:59.490Z,18.17
2022-10-07T14:10:59.391Z,18.11
2022-10-07T14:11:59.372Z,18.11
2022-10-07T14:12:59.405Z,18.03
2022-10-07T14:13:59.363Z,18.00
2022-10-07T14:14:59.344Z,18.07
2022-10-07T14:15:59.336Z,17.99
2022-10-07T14:16:59.515Z,18.00
2022-10-07T14:17:59.336Z,18.02
2022-10-07T14:18:59.313Z,18.02
2022-10-07T14:19:59.374Z,18.11
2022-10-07T14:20:59.282Z,18.10
2022-10-07T14:21:59.299Z,18.02
2022-10-07T14:22:59.329Z,18.11
2022-10-07T14:23:59.246Z,18.03
2022-10-07T14:24:59.282Z,18.05
2022-10-07T14:25:59.222Z,18.00
2022-10-07T14:26:59.214Z,18.02
2022-10-07T14:27:59.296Z,17.92
2022-10-07T14:28:59.212Z,18.00
2022-10-07T14:29:59.211Z,18.02
2022-10-07T14:30:59.317Z,18.00
2022-10-07T14:31:59.157Z,18.07
2022-10-07T14:32:59.149Z,17.97
2022-10-07T14:33:59.151Z,18.00
2022-10-07T14:34:59.128Z,18.00
2022-10-07T14:35:59.113Z,17.95
2022-10-07T14:36:59.110Z,17.99
2022-10-07T14:37:59.088Z,17.97
2022-10-07T14:38:59.121Z,17.97
2022-10-07T14:39:59.138Z,18.05
2022-10-07T14:40:59.074Z,18.00
2022-10-07T14:41:59.057Z,17.96
2022-10-07T14:42:59.050Z,17.99
2022-10-07T14:43:59.049Z,18.03
2022-10-07T14:44:59.046Z,17.97
2022-10-07T14:45:59.075Z,18.02
2022-10-07T14:46:59.028Z,17.95
2022-10-07T14:47:58.999Z,18.00
2022-10-07T14:48:58.976Z,17.99
2022-10-07T14:49:59.037Z,18.03
2022-10-07T14:50:58.948Z,17.97
2022-10-07T14:51:58.938Z,17.96
2022-10-07T14:52:58.954Z,17.95
2022-10-07T14:53:58.942Z,17.95
2022-10-07T14:54:58.925Z,17.90
2022-10-07T14:55:58.932Z,17.92
2022-10-07T14:56:58.896Z,17.93
2022-10-07T14:57:58.920Z,17.90
2022-10-07T14:58:58.873Z,17.84
2022-10-07T14:59:58.944Z,17.81
2022-10-07T15:00:58.859Z,17.75
2022-10-07T15:01:58.827Z,17.84
2022-10-07T15:02:58.823Z,17.79
2022-10-07T15:03:58.980Z,17.87
2022-10-07T15:04:58.878Z,17.82
2022-10-07T15:05:58.787Z,17.74
2022-10-07T15:06:58.794Z,17.72
2022-10-07T15:07:58.793Z,17.87
2022-10-07T15:08:58.781Z,17.71
2022-10-07T15:09:58.741Z,17.82
2022-10-07T15:10:58.776Z,17.74
2022-10-07T15:11:58.736Z,17.71
2022-10-07T15:12:58.734Z,17.72
2022-10-07T15:13:58.718Z,17.56
2022-10-07T15:14:58.692Z,17.62
2022-10-07T15:15:58.678Z,17.66
2022-10-07T15:16:58.772Z,17.56
2022-10-07T15:17:58.658Z,17.64
2022-10-07T15:18:58.659Z,17.66
2022-10-07T15:19:58.636Z,17.66
2022-10-07T15:20:58.634Z,17.63
2022-10-07T15:21:58.637Z,17.56
2022-10-07T15:22:58.606Z,17.52
2022-10-07T15:23:58.587Z,17.54
2022-10-07T15:24:58.591Z,17.56
2022-10-07T15:25:58.569Z,17.48
2022-10-07T15:26:58.624Z,17.49
2022-10-07T15:27:58.626Z,17.49
2022-10-07T15:28:58.552Z,17.41
2022-10-07T15:29:58.540Z,17.56
2022-10-07T15:30:58.568Z,17.44
2022-10-07T15:31:58.528Z,17.48
2022-10-07T15:32:58.500Z,17.38
2022-10-07T15:33:58.507Z,17.51
2022-10-07T15:34:58.472Z,17.36
2022-10-07T15:35:58.476Z,17.40
2022-10-07T15:36:58.466Z,17.33
2022-10-07T15:37:58.443Z,17.28
2022-10-07T15:38:58.438Z,17.33
2022-10-07T15:39:58.430Z,17.33
2022-10-07T15:40:58.406Z,17.41
2022-10-07T15:41:58.413Z,17.38
2022-10-07T15:42:58.479Z,17.33
2022-10-07T15:43:58.378Z,17.31
2022-10-07T15:44:58.368Z,17.33
2022-10-07T15:45:58.407Z,17.22
2022-10-07T15:46:58.348Z,17.23
2022-10-07T15:48:00.600Z,17.12
2022-10-07T15:48:58.318Z,17.12
2022-10-07T15:49:58.325Z,17.15
2022-10-07T15:50:58.311Z,17.08
2022-10-07T15:51:58.292Z,17.07
2022-10-07T15:52:58.278Z,17.06
2022-10-07T15:53:58.273Z,16.98
2022-10-07T15:54:58.283Z,17.00
2022-10-07T15:55:58.248Z,16.93
2022-10-07T15:56:58.236Z,16.85
2022-10-07T15:57:58.220Z,16.86
2022-10-07T15:58:58.226Z,16.88
2022-10-07T15:59:58.226Z,16.88
2022-10-07T16:00:58.226Z,16.88
2022-10-07T16:01:58.210Z,16.83
2022-10-07T16:02:58.193Z,16.94
2022-10-07T16:03:58.180Z,16.88
2022-10-07T16:04:58.159Z,16.97
2022-10-07T16:05:58.161Z,16.93
2022-10-07T16:06:58.174Z,16.85
2022-10-07T16:07:58.108Z,16.94
2022-10-07T16:08:58.102Z,16.91
2022-10-07T16:09:58.112Z,16.88
2022-10-07T16:10:58.102Z,16.91
2022-10-07T16:11:58.088Z,16.78
2022-10-07T16:12:58.054Z,16.79
2022-10-07T16:13:58.045Z,16.75
2022-10-07T16:14:58.085Z,16.71
2022-10-07T16:15:58.049Z,16.67
2022-10-07T16:16:58.022Z,16.70
2022-10-07T16:17:58.022Z,16.73
2022-10-07T16:18:58.004Z,16.71
2022-10-07T16:19:58.013Z,16.70
2022-10-07T16:20:57.980Z,16.73
2022-10-07T16:21:57.955Z,16.73
2022-10-07T16:22:57.954Z,16.79
2022-10-07T16:23:57.981Z,16.66
2022-10-07T16:24:57.926Z,16.61
2022-10-07T16:25:57.910Z,16.67
2022-10-07T16:26:57.900Z,16.66
2022-10-07T16:27:57.892Z,16.63
2022-10-07T16:28:57.878Z,16.66
2022-10-07T16:29:57.895Z,16.57
2022-10-07T16:30:57.903Z,16.64
2022-10-07T16:31:59.133Z,16.63
2022-10-07T16:32:57.840Z,16.61
2022-10-07T16:33:57.828Z,16.58
2022-10-07T16:34:57.820Z,16.56
2022-10-07T16:35:57.844Z,16.56
2022-10-07T16:36:57.802Z,16.57
2022-10-07T16:37:57.772Z,16.63
2022-10-07T16:38:57.774Z,16.49
2022-10-07T16:39:57.786Z,16.50
2022-10-07T16:40:57.756Z,16.53
2022-10-07T16:41:57.746Z,16.53
2022-10-07T16:42:57.727Z,16.45
2022-10-07T16:43:57.737Z,16.52
2022-10-07T16:44:57.706Z,16.34
2022-10-07T16:45:57.737Z,16.33
2022-10-07T16:46:57.778Z,16.28
2022-10-07T16:47:57.678Z,16.27
2022-10-07T16:48:57.679Z,16.25
2022-10-07T16:49:57.676Z,16.24
2022-10-07T16:50:57.642Z,16.17
2022-10-07T16:51:57.617Z,16.04
2022-10-07T16:52:57.616Z,16.12
2022-10-07T16:53:57.608Z,16.07
2022-10-07T16:54:57.633Z,16.04
2022-10-07T16:55:57.582Z,15.89
2022-10-07T16:56:57.599Z,15.92
2022-10-07T16:57:57.554Z,15.78
2022-10-07T16:58:57.543Z,15.78
2022-10-07T16:59:57.559Z,15.68
2022-10-07T17:00:57.529Z,15.60
2022-10-07T17:01:57.604Z,15.53
2022-10-07T17:02:57.526Z,15.60
2022-10-07T17:03:57.535Z,15.67
2022-10-07T17:04:57.524Z,15.69
2022-10-07T17:05:57.513Z,15.59
2022-10-07T17:06:57.457Z,15.49
2022-10-07T17:07:57.462Z,15.57
2022-10-07T17:08:57.446Z,15.49
2022-10-07T17:09:57.446Z,15.59
2022-10-07T17:10:57.415Z,15.57
2022-10-07T17:11:57.422Z,15.67
2022-10-07T17:12:57.392Z,15.68
2022-10-07T17:13:57.386Z,15.53
2022-10-07T17:14:57.391Z,15.62
2022-10-07T17:15:57.426Z,15.59
2022-10-07T17:16:57.372Z,15.64
2022-10-07T17:17:57.349Z,15.53
2022-10-07T17:18:57.347Z,15.54
2022-10-07T17:19:57.312Z,15.57
2022-10-07T17:20:57.307Z,15.56
2022-10-07T17:21:57.313Z,15.51
2022-10-07T17:22:57.286Z,15.46
2022-10-07T17:23:57.288Z,15.57
2022-10-07T17:24:57.261Z,15.54
2022-10-07T17:25:57.248Z,15.49
2022-10-07T17:26:57.265Z,15.54
2022-10-07T17:27:57.234Z,15.49